createdAt,value
2022-10-22T00:00:04.075Z,22.50
2022-10-22T00:01:04.014Z,21.70
2022-10-22T00:02:03.995Z,21.80
2022-10-22T00:03:04.005Z,23.50
2022-10-22T00:04:03.947Z,23.30
2022-10-22T00:05:03.931Z,23.50
2022-10-22T00:06:03.933Z,23.00
2022-10-22T00:07:03.932Z,23.20
2022-10-22T00:08:03.864Z,22.10
2022-10-22T00:09:03.938Z,22.30
2022-10-22T00:10:03.821Z,23.40
2022-10-22T00:11:03.827Z,22.60
2022-10-22T00:12:03.782Z,23.00
2022-10-22T00:13:03.753Z,22.40
2022-10-22T00:14:03.732Z,24.20
2022-10-22T00:15:03.704Z,22.50
2022-10-22T00:16:03.715Z,22.90
2022-10-22T00:17:05.819Z,22.50
2022-10-22T00:18:04.650Z,23.00
2022-10-22T00:19:03.870Z,21.80
2022-10-22T00:20:03.611Z,22.00
2022-10-22T00:21:03.622Z,22.40
2022-10-22T00:22:03.561Z,22.20
2022-10-22T00:23:03.552Z,21.50
2022-10-22T00:24:03.522Z,21.80
2022-10-22T00:25:03.500Z,22.00
2022-10-22T00:26:03.515Z,21.60
2022-10-22T00:27:03.459Z,22.00
2022-10-22T00:28:03.465Z,21.40
2022-10-22T00:29:03.423Z,20.40
2022-10-22T00:30:03.420Z,20.80
2022-10-22T00:31:03.402Z,20.00
2022-10-22T00:32:03.336Z,19.60
2022-10-22T00:33:03.346Z,19.20
2022-10-22T00:34:03.289Z,19.10
2022-10-22T00:35:03.285Z,18.70
2022-10-22T00:36:03.276Z,19.80
2022-10-22T00:37:03.224Z,19.70
2022-10-22T00:38:03.202Z,19.80
2022-10-22T00:39:03.218Z,19.10
2022-10-22T00:40:03.161Z,18.40
2022-10-22T00:41:03.257Z,18.50
2022-10-22T00:42:03.118Z,19.30
2022-10-22T00:43:03.094Z,20.60
2022-10-22T00:44:03.084Z,21.30
2022-10-22T00:45:03.055Z,20.20
2022-10-22T00:46:03.061Z,19.90
2022-10-22T00:47:03.012Z,19.60
2022-10-22T00:48:02.989Z,19.20
2022-10-22T00:49:02.967Z,18.20
2022-10-22T00:51:02.958Z,19.40
2022-10-22T00:52:02.897Z,17.90
2022-10-22T00:53:02.887Z,17.30
2022-10-22T00:54:02.857Z,16.80
2022-10-22T00:55:02.840Z,17.10
2022-10-22T00:56:02.843Z,16.90
2022-10-22T00:57:02.794Z,16.30
2022-10-22T00:58:02.775Z,17.30
2022-10-22T00:59:02.774Z,17.00
2022-10-22T01:00:02.737Z,16.80
2022-10-22T01:01:02.785Z,16.40
2022-10-22T01:02:02.677Z,17.00
2022-10-22T01:03:02.656Z,16.40
2022-10-22T01:04:02.647Z,16.60
2022-10-22T01:05:02.614Z,16.80
2022-10-22T01:06:02.617Z,16.40
2022-10-22T01:07:02.565Z,16.90
2022-10-22T01:08:02.611Z,16.10
2022-10-22T01:09:02.584Z,16.50
2022-10-22T01:10:02.512Z,16.90
2022-10-22T01:11:02.510Z,16.50
2022-10-22T01:12:02.456Z,16.20
2022-10-22T01:13:02.435Z,17.40
2022-10-22T01:14:02.539Z,16.90
2022-10-22T01:15:02.393Z,17.10
2022-10-22T01:16:02.403Z,18.00
2022-10-22T01:17:02.344Z,17.00
2022-10-22T01:18:02.326Z,18.00
2022-10-22T01:19:02.302Z,18.20
2022-10-22T01:20:02.280Z,18.30
2022-10-22T01:21:02.296Z,17.50
2022-10-22T01:22:02.239Z,17.20
2022-10-22T01:23:02.224Z,17.60
2022-10-22T01:24:02.201Z,16.10
2022-10-22T01:25:02.173Z,16.10
2022-10-22T01:26:02.176Z,15.50
2022-10-22T01:27:02.127Z,16.10
2022-10-22T01:28:02.108Z,15.00
2022-10-22T01:29:02.138Z,15.50
2022-10-22T01:30:02.060Z,17.80
2022-10-22T01:31:02.074Z,17.80
2022-10-22T01:32:02.018Z,15.50
2022-10-22T01:33:02.000Z,16.40
2022-10-22T01:34:01.974Z,16.70
2022-10-22T01:35:01.952Z,16.80
2022-10-22T01:36:01.947Z,15.80
2022-10-22T01:37:02.915Z,15.90
2022-10-22T01:38:01.889Z,16.10
2022-10-22T01:39:01.891Z,16.70
2022-10-22T01:40:01.843Z,15.80
2022-10-22T01:41:01.855Z,16.70
2022-10-22T01:42:01.801Z,16.90
2022-10-22T01:43:01.787Z,16.70
2022-10-22T01:44:01.760Z,17.50
2022-10-22T01:45:01.743Z,17.50
2022-10-22T01:46:01.742Z,17.00
2022-10-22T01:47:01.688Z,17.30
2022-10-22T01:48:02.692Z,15.90
2022-10-22T01:49:01.662Z,17.30
2022-10-22T01:50:01.641Z,15.90
2022-10-22T01:51:01.687Z,16.30
2022-10-22T01:52:01.617Z,16.80
2022-10-22T01:53:01.628Z,15.20
2022-10-22T01:54:01.548Z,16.20
2022-10-22T01:55:01.525Z,16.50
2022-10-22T01:56:01.537Z,15.60
2022-10-22T01:57:01.484Z,15.50
2022-10-22T01:58:01.467Z,15.30
2022-10-22T01:59:01.440Z,15.40
2022-10-22T02:00:01.423Z,16.10
2022-10-22T02:01:01.462Z,16.30
2022-10-22T02:02:01.385Z,16.80
2022-10-22T02:03:01.357Z,16.40
2022-10-22T02:04:01.336Z,17.60
2022-10-22T02:05:01.314Z,17.20
2022-10-22T02:06:01.312Z,16.30
2022-10-22T02:07:02.268Z,17.40
2022-10-22T02:08:01.243Z,18.10
2022-10-22T02:09:01.305Z,17.40
2022-10-22T02:10:01.203Z,15.90
2022-10-22T02:11:01.213Z,17.20
2022-10-22T02:12:01.183Z,16.70
2022-10-22T02:13:01.135Z,17.40
2022-10-22T02:14:01.115Z,17.10
2022-10-22T02:15:01.093Z,15.60
2022-10-22T02:16:01.096Z,16.00
2022-10-22T02:17:01.049Z,16.60
2022-10-22T02:18:01.025Z,16.80
2022-10-22T02:19:01.001Z,17.40
2022-10-22T02:20:00.984Z,18.70
2022-10-22T02:21:01.032Z,19.90
2022-10-22T02:22:00.937Z,20.70
2022-10-22T02:23:00.919Z,19.70
2022-10-22T02:24:00.892Z,20.30
2022-10-22T02:25:00.869Z,18.70
2022-10-22T02:26:00.877Z,19.00
2022-10-22T02:27:00.826Z,18.80
2022-10-22T02:28:00.810Z,19.30
2022-10-22T02:29:00.845Z,19.80
2022-10-22T02:30:00.839Z,20.40
2022-10-22T02:31:00.776Z,19.00
2022-10-22T02:32:00.723Z,20.00
2022-10-22T02:33:00.705Z,19.50
2022-10-22T02:34:00.683Z,19.90
2022-10-22T02:35:00.661Z,19.70
2022-10-22T02:36:00.665Z,20.80
2022-10-22T02:37:00.619Z,20.00
2022-10-22T02:38:00.597Z,20.00
2022-10-22T02:39:00.572Z,19.10
2022-10-22T02:40:00.553Z,19.60
2022-10-22T02:41:00.553Z,19.80
2022-10-22T02:42:00.510Z,18.70
2022-10-22T02:43:00.486Z,18.10
2022-10-22T02:44:00.468Z,17.90
2022-10-22T02:45:00.440Z,18.70
2022-10-22T02:46:00.447Z,19.40
2022-10-22T02:47:00.399Z,19.10
2022-10-22T02:48:00.374Z,20.10
2022-10-22T02:49:00.352Z,20.20
2022-10-22T02:50:00.327Z,20.00
2022-10-22T02:51:00.336Z,20.30
2022-10-22T02:52:00.284Z,20.60
2022-10-22T02:53:00.263Z,20.40
2022-10-22T02:54:00.244Z,20.20
2022-10-22T02:55:00.220Z,20.70
2022-10-22T02:56:00.230Z,21.10
2022-10-22T02:57:00.178Z,20.80
2022-10-22T02:58:00.156Z,20.50
2022-10-22T02:59:00.139Z,20.00
2022-10-22T03:00:00.121Z,20.10
2022-10-22T03:01:00.224Z,19.90
2022-10-22T03:02:00.079Z,20.10
2022-10-22T03:03:00.047Z,20.40
2022-10-22T03:04:00.034Z,21.30
2022-10-22T03:05:00.017Z,20.60
2022-10-22T03:06:00.014Z,19.70
2022-10-22T03:06:59.972Z,19.60
2022-10-22T03:07:59.950Z,19.50
2022-10-22T03:08:59.978Z,20.00
2022-10-22T03:09:59.906Z,18.60
2022-10-22T03:10:59.883Z,19.10
2022-10-22T03:11:59.894Z,18.30
2022-10-22T03:12:59.845Z,19.10
2022-10-22T03:13:59.822Z,18.20
2022-10-22T03:14:59.799Z,17.80
2022-10-22T03:15:59.778Z,18.00
2022-10-22T03:16:59.794Z,17.40
2022-10-22T03:17:59.738Z,17.00
2022-10-22T03:18:59.711Z,17.00
2022-10-22T03:19:59.693Z,17.30
2022-10-22T03:20:59.676Z,17.60
2022-10-22T03:21:59.684Z,17.00
2022-10-22T03:22:59.632Z,16.90
2022-10-22T03:23:59.602Z,16.80
2022-10-22T03:24:59.583Z,16.10
2022-10-22T03:27:00.570Z,16.40
2022-10-22T03:27:59.523Z,16.20
2022-10-22T03:28:59.506Z,16.50
2022-10-22T03:29:59.501Z,16.30
2022-10-22T03:30:59.458Z,16.00
2022-10-22T03:31:59.452Z,16.10
2022-10-22T03:33:00.416Z,17.10
2022-10-22T03:33:59.397Z,16.60
2022-10-22T03:36:00.358Z,16.70
2022-10-22T03:36:59.375Z,17.10
2022-10-22T03:37:59.314Z,16.20
2022-10-22T03:38:59.289Z,17.30
2022-10-22T03:39:59.278Z,18.50
2022-10-22T03:40:59.267Z,17.90
2022-10-22T03:41:59.261Z,18.80
2022-10-22T03:42:59.200Z,19.00
2022-10-22T03:43:59.203Z,18.50
2022-10-22T03:44:59.175Z,19.60
2022-10-22T03:45:59.150Z,18.60
2022-10-22T03:47:01.766Z,20.50
2022-10-22T03:47:59.120Z,20.40
2022-10-22T03:48:59.081Z,22.00
2022-10-22T03:49:59.051Z,20.30
2022-10-22T03:50:59.036Z,21.20
2022-10-22T03:51:59.043Z,20.80
2022-10-22T03:52:58.997Z,22.20
2022-10-22T03:53:58.987Z,22.20
2022-10-22T03:54:58.956Z,23.00
2022-10-22T03:55:58.925Z,24.50
2022-10-22T03:56:58.949Z,23.70
2022-10-22T03:57:58.890Z,23.00
2022-10-22T03:58:58.869Z,26.80
2022-10-22T03:59:58.841Z,25.40
2022-10-22T04:00:58.873Z,27.30
2022-10-22T04:01:58.855Z,26.10
2022-10-22T04:02:58.778Z,29.50
2022-10-22T04:03:58.787Z,30.90
2022-10-22T04:04:58.800Z,26.90
2022-10-22T04:05:58.706Z,29.60
2022-10-22T04:06:58.709Z,29.80
2022-10-22T04:07:58.661Z,28.00
2022-10-22T04:08:58.670Z,29.60
2022-10-22T04:09:58.617Z,29.80
2022-10-22T04:10:58.594Z,33.20
2022-10-22T04:11:58.597Z,29.60
2022-10-22T04:12:58.550Z,31.10
2022-10-22T04:13:58.523Z,34.50
2022-10-22T04:14:58.503Z,31.20
2022-10-22T04:15:58.484Z,32.90
2022-10-22T04:16:58.492Z,30.80
2022-10-22T04:17:58.436Z,34.70
2022-10-22T04:18:58.417Z,27.40
2022-10-22T04:19:58.397Z,27.30
2022-10-22T04:20:58.372Z,27.10
2022-10-22T04:21:58.383Z,26.00
2022-10-22T04:22:58.326Z,25.70
2022-10-22T04:23:58.308Z,28.10
2022-10-22T04:24:58.281Z,27.40
2022-10-22T04:25:58.259Z,27.80
2022-10-22T04:26:58.266Z,31.40
2022-10-22T04:27:58.218Z,31.90
2022-10-22T04:28:58.195Z,27.30
2022-10-22T04:29:58.171Z,27.00
2022-10-22T04:30:58.151Z,26.50
2022-10-22T04:31:58.161Z,25.20
2022-10-22T04:32:58.109Z,26.40
2022-10-22T04:33:58.096Z,25.30
2022-10-22T04:34:58.073Z,24.50
2022-10-22T04:35:58.046Z,25.30
2022-10-22T04:36:58.047Z,24.10
2022-10-22T04:37:58.002Z,24.70
2022-10-22T04:38:57.982Z,25.10
2022-10-22T04:39:58.371Z,24.50
2022-10-22T04:40:57.934Z,24.30
2022-10-22T04:41:57.944Z,23.10
2022-10-22T04:42:57.889Z,23.50
2022-10-22T04:43:57.873Z,23.90
2022-10-22T04:44:57.853Z,22.40
2022-10-22T04:46:57.823Z,21.40
2022-10-22T04:47:58.786Z,21.50
2022-10-22T04:48:57.772Z,21.80
2022-10-22T04:49:57.748Z,21.20
2022-10-22T04:50:57.723Z,20.70
2022-10-22T04:51:57.726Z,21.60
2022-10-22T04:52:57.701Z,21.60
2022-10-22T04:53:57.658Z,22.40
2022-10-22T04:54:57.639Z,22.20
2022-10-22T04:55:57.624Z,21.60
2022-10-22T04:56:57.629Z,22.00
2022-10-22T04:57:57.577Z,22.20
2022-10-22T04:58:57.557Z,22.20
2022-10-22T04:59:57.544Z,20.80
2022-10-22T05:00:57.598Z,19.70
2022-10-22T05:01:57.529Z,20.20
2022-10-22T05:02:57.467Z,19.70
2022-10-22T05:03:57.449Z,19.40
2022-10-22T05:04:57.423Z,20.00
2022-10-22T05:05:57.403Z,19.10
2022-10-22T05:06:57.412Z,19.60
2022-10-22T05:07:57.358Z,20.00
2022-10-22T05:08:57.416Z,19.50
2022-10-22T05:09:57.325Z,19.50
2022-10-22T05:10:57.299Z,19.40
2022-10-22T05:11:57.300Z,20.00
2022-10-22T05:12:57.254Z,19.00
2022-10-22T05:13:57.232Z,19.00
2022-10-22T05:14:57.198Z,19.10
2022-10-22T05:15:58.189Z,19.60
2022-10-22T05:16:57.198Z,19.10
2022-10-22T05:17:57.147Z,19.40
2022-10-22T05:18:57.129Z,18.70
2022-10-22T05:19:57.108Z,19.00
2022-10-22T05:20:57.086Z,20.10
2022-10-22T05:21:57.091Z,18.50
2022-10-22T05:22:57.037Z,18.70
2022-10-22T05:23:57.016Z,19.70
2022-10-22T05:24:56.998Z,19.20
2022-10-22T05:25:56.977Z,19.60
2022-10-22T05:26:56.983Z,18.70
2022-10-22T05:27:58.419Z,18.30
2022-10-22T05:28:56.909Z,18.60
2022-10-22T05:29:56.890Z,18.20
2022-10-22T05:30:56.870Z,17.70
2022-10-22T05:31:56.870Z,18.90
2022-10-22T05:32:56.822Z,18.20
2022-10-22T05:33:56.804Z,18.20
2022-10-22T05:34:56.780Z,17.60
2022-10-22T05:35:56.760Z,17.40
2022-10-22T05:36:56.779Z,17.20
2022-10-22T05:38:57.698Z,16.90
2022-10-22T05:40:06.561Z,17.20
2022-10-22T05:40:58.652Z,16.60
2022-10-22T05:41:56.661Z,16.00
2022-10-22T05:42:56.609Z,16.20
2022-10-22T05:43:56.590Z,15.70
2022-10-22T05:44:56.561Z,16.30
2022-10-22T05:45:56.539Z,15.40
2022-10-22T05:46:56.548Z,16.10
2022-10-22T05:47:56.503Z,15.20
2022-10-22T05:48:56.476Z,15.00
2022-10-22T05:49:56.454Z,15.10
2022-10-22T05:50:56.431Z,15.70
2022-10-22T05:51:56.441Z,15.90
2022-10-22T05:52:56.390Z,15.70
2022-10-22T05:53:56.366Z,15.20
2022-10-22T05:54:56.343Z,15.90
2022-10-22T05:55:56.320Z,15.30
2022-10-22T05:56:56.337Z,15.90
2022-10-22T05:57:56.298Z,15.40
2022-10-22T05:58:56.310Z,17.40
2022-10-22T05:59:56.236Z,18.10
2022-10-22T06:00:56.229Z,18.40
2022-10-22T06:01:56.263Z,19.30
2022-10-22T06:02:56.169Z,20.00
2022-10-22T06:03:56.154Z,20.40
2022-10-22T06:04:56.134Z,20.20
2022-10-22T06:05:56.101Z,20.70
2022-10-22T06:06:56.111Z,20.80
2022-10-22T06:07:56.055Z,21.40
2022-10-22T06:08:56.069Z,21.10
2022-10-22T06:09:56.014Z,21.90
2022-10-22T06:10:55.986Z,21.20
2022-10-22T06:11:55.995Z,22.30
2022-10-22T06:12:55.945Z,21.90
2022-10-22T06:13:55.922Z,21.30
2022-10-22T06:14:55.902Z,22.00
2022-10-22T06:15:55.876Z,20.90
2022-10-22T06:16:55.882Z,21.20
2022-10-22T06:17:55.828Z,21.80
2022-10-22T06:18:55.801Z,19.70
2022-10-22T06:19:55.821Z,20.20
2022-10-22T06:20:55.759Z,20.80
2022-10-22T06:21:55.765Z,19.60
2022-10-22T06:22:55.716Z,21.10
2022-10-22T06:23:55.692Z,20.80
2022-10-22T06:24:55.670Z,21.10
2022-10-22T06:25:55.647Z,21.60
2022-10-22T06:26:55.675Z,21.40
2022-10-22T06:27:55.611Z,21.70
2022-10-22T06:28:55.582Z,21.00
2022-10-22T06:29:55.561Z,21.00
2022-10-22T06:30:55.538Z,21.00
2022-10-22T06:31:55.544Z,20.60
2022-10-22T06:32:55.487Z,21.00
2022-10-22T06:33:55.468Z,20.70
2022-10-22T06:34:55.449Z,20.40
2022-10-22T06:35:55.425Z,20.10
2022-10-22T06:36:55.428Z,19.80
2022-10-22T06:37:55.376Z,20.00
2022-10-22T06:38:55.427Z,19.90
2022-10-22T06:39:55.331Z,19.90
2022-10-22T06:40:55.308Z,21.00
2022-10-22T06:41:55.313Z,19.80
2022-10-22T06:42:55.262Z,19.50
2022-10-22T06:43:55.237Z,20.60
2022-10-22T06:44:55.240Z,21.30
2022-10-22T06:45:55.197Z,19.80
2022-10-22T06:46:55.196Z,18.70
2022-10-22T06:47:55.144Z,18.20
2022-10-22T06:48:55.121Z,17.90
2022-10-22T06:49:55.098Z,17.90
2022-10-22T06:50:55.076Z,18.10
2022-10-22T06:51:55.085Z,17.50
2022-10-22T06:52:55.027Z,17.30
2022-10-22T06:53:55.011Z,17.30
2022-10-22T06:54:54.982Z,17.60
2022-10-22T06:55:54.958Z,16.60
2022-10-22T06:56:54.976Z,16.70
2022-10-22T06:57:54.909Z,16.40
2022-10-22T06:58:54.889Z,17.10
2022-10-22T06:59:54.861Z,15.80
2022-10-22T07:00:54.890Z,15.10
2022-10-22T07:01:54.856Z,14.30
2022-10-22T07:02:57.732Z,15.00
2022-10-22T07:03:55.773Z,14.80
2022-10-22T07:04:54.751Z,14.70
2022-10-22T07:05:54.741Z,15.10
2022-10-22T07:06:54.733Z,14.50
2022-10-22T07:07:54.691Z,14.30
2022-10-22T07:08:54.799Z,14.40
2022-10-22T07:09:54.635Z,13.20
2022-10-22T07:10:54.615Z,12.20
2022-10-22T07:11:54.620Z,11.70
2022-10-22T07:12:54.583Z,11.50
2022-10-22T07:13:54.545Z,9.80
2022-10-22T07:14:54.525Z,9.90
2022-10-22T07:15:54.533Z,9.90
2022-10-22T07:16:54.504Z,8.90
2022-10-22T07:17:54.456Z,8.60
2022-10-22T07:18:54.435Z,7.90
2022-10-22T07:19:54.417Z,8.20
2022-10-22T07:20:54.395Z,7.30
2022-10-22T07:21:54.414Z,7.20
2022-10-22T07:22:54.357Z,7.40
2022-10-22T07:23:54.344Z,7.20
2022-10-22T07:24:54.333Z,7.00
2022-10-22T07:25:54.303Z,6.80
2022-10-22T07:26:54.309Z,6.30
2022-10-22T07:27:54.266Z,6.50
2022-10-22T07:28:54.248Z,6.60
2022-10-22T07:29:54.224Z,6.30
2022-10-22T07:30:54.206Z,6.20
2022-10-22T07:31:54.212Z,6.00
2022-10-22T07:32:54.170Z,5.90
2022-10-22T07:33:54.149Z,6.30
2022-10-22T07:34:54.129Z,5.70
2022-10-22T07:35:54.112Z,5.60
2022-10-22T07:36:54.131Z,5.70
2022-10-22T07:37:54.073Z,5.60
2022-10-22T07:38:54.055Z,5.30
2022-10-22T07:39:54.041Z,5.40
2022-10-22T07:40:54.045Z,5.90
2022-10-22T07:41:54.041Z,5.70
2022-10-22T07:42:54.008Z,5.80
2022-10-22T07:43:53.979Z,6.50
2022-10-22T07:44:53.945Z,7.00
2022-10-22T07:45:53.931Z,7.60
2022-10-22T07:46:54.727Z,8.00
2022-10-22T07:47:53.889Z,7.60
2022-10-22T07:48:53.873Z,7.60
2022-10-22T07:49:53.855Z,7.90
2022-10-22T07:50:53.839Z,7.60
2022-10-22T07:51:53.848Z,7.60
2022-10-22T07:52:56.038Z,7.60
2022-10-22T07:53:53.785Z,7.70
2022-10-22T07:54:53.767Z,8.00
2022-10-22T07:55:53.749Z,8.30
2022-10-22T07:56:53.753Z,7.90
2022-10-22T07:57:53.711Z,8.80
2022-10-22T07:58:53.715Z,8.20
2022-10-22T07:59:53.670Z,8.90
2022-10-22T08:00:53.659Z,9.20
2022-10-22T08:01:53.663Z,8.70
2022-10-22T08:02:53.621Z,8.20
2022-10-22T08:03:53.601Z,7.70
2022-10-22T08:04:53.581Z,8.10
2022-10-22T08:05:53.558Z,8.00
2022-10-22T08:06:53.579Z,7.40
2022-10-22T08:07:53.523Z,7.00
2022-10-22T08:08:53.572Z,7.50
2022-10-22T08:09:53.486Z,7.20
2022-10-22T08:10:53.469Z,7.20
2022-10-22T08:11:53.472Z,7.20
2022-10-22T08:12:53.431Z,7.20
2022-10-22T08:13:53.413Z,6.90
2022-10-22T08:14:53.393Z,7.10
2022-10-22T08:15:56.545Z,6.90
2022-10-22T08:16:53.382Z,6.90
2022-10-22T08:17:53.338Z,6.20
2022-10-22T08:18:53.315Z,6.50
2022-10-22T08:19:53.298Z,6.40
2022-10-22T08:20:53.279Z,6.40
2022-10-22T08:21:53.289Z,6.00
2022-10-22T08:22:53.245Z,5.60
2022-10-22T08:23:53.309Z,5.40
2022-10-22T08:24:53.210Z,5.30
2022-10-22T08:25:53.195Z,5.10
2022-10-22T08:26:53.198Z,5.00
2022-10-22T08:27:53.155Z,4.60
2022-10-22T08:28:53.128Z,4.80
2022-10-22T08:29:53.114Z,4.80
2022-10-22T08:30:53.100Z,4.90
2022-10-22T08:31:53.099Z,4.40
2022-10-22T08:32:54.080Z,4.70
2022-10-22T08:33:54.033Z,4.80
2022-10-22T08:34:53.018Z,4.50
2022-10-22T08:35:53.007Z,4.70
2022-10-22T08:36:53.004Z,4.80
2022-10-22T08:37:52.964Z,4.70
2022-10-22T08:38:52.942Z,4.70
2022-10-22T08:39:52.923Z,5.20
2022-10-22T08:40:52.908Z,4.80
2022-10-22T08:41:52.907Z,4.80
2022-10-22T08:42:52.872Z,4.90
2022-10-22T08:43:52.842Z,4.80
2022-10-22T08:44:52.822Z,4.70
2022-10-22T08:45:52.813Z,4.80
2022-10-22T08:46:52.814Z,5.10
2022-10-22T08:47:52.769Z,5.10
2022-10-22T08:48:52.747Z,4.70
2022-10-22T08:49:52.736Z,5.30
2022-10-22T08:50:52.712Z,5.00
2022-10-22T08:51:52.713Z,5.40
2022-10-22T08:52:52.667Z,5.40
2022-10-22T08:53:52.650Z,5.10
2022-10-22T08:54:52.621Z,5.90
2022-10-22T08:55:52.605Z,5.40
2022-10-22T08:56:52.642Z,5.00
2022-10-22T08:57:52.806Z,4.90
2022-10-22T08:58:52.546Z,4.80
2022-10-22T08:59:52.522Z,4.50
2022-10-22T09:00:52.507Z,4.70
2022-10-22T09:01:52.523Z,5.00
2022-10-22T09:02:52.459Z,4.80
2022-10-22T09:03:52.440Z,5.10
2022-10-22T09:04:52.426Z,5.20
2022-10-22T09:06:53.690Z,5.00
2022-10-22T09:07:52.361Z,5.30
2022-10-22T09:08:52.408Z,5.10
2022-10-22T09:09:52.322Z,5.10
2022-10-22T09:10:52.301Z,5.00
2022-10-22T09:11:52.307Z,5.00
2022-10-22T09:12:52.262Z,5.10
2022-10-22T09:13:52.240Z,5.20
2022-10-22T09:14:52.229Z,4.90
2022-10-22T09:15:52.191Z,5.30
2022-10-22T09:16:52.226Z,5.20
2022-10-22T09:17:52.164Z,5.10
2022-10-22T09:18:52.144Z,5.00
2022-10-22T09:19:52.132Z,4.70
2022-10-22T09:20:52.101Z,5.00
2022-10-22T09:21:52.112Z,4.60
2022-10-22T09:22:52.065Z,4.30
2022-10-22T09:23:52.045Z,4.60
2022-10-22T09:24:52.026Z,4.70
2022-10-22T09:25:52.007Z,5.00
2022-10-22T09:26:52.015Z,4.60
2022-10-22T09:27:51.969Z,4.30
2022-10-22T09:28:51.943Z,4.20
2022-10-22T09:29:51.930Z,4.00
2022-10-22T09:30:51.950Z,4.30
2022-10-22T09:31:51.922Z,4.10
2022-10-22T09:32:51.871Z,3.90
2022-10-22T09:33:51.860Z,4.20
2022-10-22T09:34:51.843Z,3.70
2022-10-22T09:35:51.816Z,4.40
2022-10-22T09:36:51.822Z,4.40
2022-10-22T09:37:51.778Z,4.10
2022-10-22T09:38:51.755Z,4.10
2022-10-22T09:39:51.741Z,3.70
2022-10-22T09:40:51.722Z,3.70
2022-10-22T09:41:51.748Z,3.70
2022-10-22T09:42:51.683Z,4.00
2022-10-22T09:43:51.659Z,3.60
2022-10-22T09:44:51.643Z,3.60
2022-10-22T09:45:51.623Z,3.80
2022-10-22T09:46:51.630Z,3.50
2022-10-22T09:48:01.939Z,3.60
2022-10-22T09:48:53.564Z,3.90
2022-10-22T09:49:51.548Z,3.40
2022-10-22T09:50:51.532Z,3.20
2022-10-22T09:51:51.535Z,3.80
2022-10-22T09:52:51.492Z,3.60
2022-10-22T09:53:51.469Z,3.20
2022-10-22T09:54:51.454Z,3.50
2022-10-22T09:55:51.464Z,3.60
2022-10-22T09:56:51.439Z,3.50
2022-10-22T09:57:51.395Z,3.80
2022-10-22T09:58:51.386Z,3.80
2022-10-22T09:59:51.361Z,3.60
2022-10-22T10:00:51.342Z,3.70
2022-10-22T10:01:51.345Z,3.60
2022-10-22T10:02:51.333Z,4.00
2022-10-22T10:03:51.279Z,3.90
2022-10-22T10:04:51.261Z,3.80
2022-10-22T10:05:51.253Z,4.20
2022-10-22T10:06:51.254Z,3.90
2022-10-22T10:07:51.205Z,3.70
2022-10-22T10:08:51.286Z,3.30
2022-10-22T10:09:51.164Z,3.00
2022-10-22T10:10:51.145Z,3.50
2022-10-22T10:11:51.155Z,2.70
2022-10-22T10:12:51.108Z,2.70
2022-10-22T10:13:51.089Z,2.50
2022-10-22T10:14:51.068Z,2.70
2022-10-22T10:15:51.047Z,3.00
2022-10-22T10:16:51.054Z,2.60
2022-10-22T10:17:51.046Z,2.60
2022-10-22T10:18:50.991Z,2.70
2022-10-22T10:19:50.973Z,2.70
2022-10-22T10:20:50.959Z,2.60
2022-10-22T10:21:50.963Z,2.70
2022-10-22T10:22:50.922Z,2.30
2022-10-22T10:23:50.905Z,2.50
2022-10-22T10:24:50.887Z,2.30
2022-10-22T10:25:50.863Z,2.50
2022-10-22T10:26:50.874Z,2.50
2022-10-22T10:27:50.827Z,2.30
2022-10-22T10:28:50.811Z,2.50
2022-10-22T10:29:50.791Z,2.50
2022-10-22T10:30:50.775Z,2.50
2022-10-22T10:31:50.779Z,2.30
2022-10-22T10:32:50.735Z,2.70
2022-10-22T10:33:50.716Z,2.40
2022-10-22T10:34:50.696Z,2.60
2022-10-22T10:35:50.680Z,2.90
2022-10-22T10:36:50.693Z,2.80
2022-10-22T10:37:50.689Z,2.60
2022-10-22T10:38:50.619Z,2.70
2022-10-22T10:39:50.606Z,2.80
2022-10-22T10:40:50.590Z,2.60
2022-10-22T10:41:50.594Z,2.40
2022-10-22T10:42:50.545Z,2.50
2022-10-22T10:43:50.528Z,2.70
2022-10-22T10:44:50.529Z,2.40
2022-10-22T10:45:55.472Z,2.40
2022-10-22T10:46:52.528Z,2.50
2022-10-22T10:47:50.457Z,2.30
2022-10-22T10:48:50.438Z,2.40
2022-10-22T10:49:50.418Z,2.30
2022-10-22T10:50:50.432Z,2.40
2022-10-22T10:51:50.406Z,2.30
2022-10-22T10:52:50.360Z,2.30
2022-10-22T10:53:50.336Z,2.50
2022-10-22T10:54:50.327Z,2.30
2022-10-22T10:55:50.303Z,2.30
2022-10-22T10:56:50.312Z,2.30
2022-10-22T10:57:50.260Z,2.30
2022-10-22T10:58:50.240Z,2.30
2022-10-22T10:59:50.226Z,2.30
2022-10-22T11:00:50.196Z,2.40
2022-10-22T11:01:51.265Z,2.30
2022-10-22T11:02:50.195Z,2.40
2022-10-22T11:03:50.149Z,2.20
2022-10-22T11:04:50.122Z,2.20
2022-10-22T11:05:51.143Z,2.10
2022-10-22T11:06:50.093Z,2.20
2022-10-22T11:07:54.912Z,1.90
2022-10-22T11:08:52.091Z,2.30
2022-10-22T11:09:50.037Z,2.60
2022-10-22T11:10:50.047Z,2.60
2022-10-22T11:11:50.001Z,2.70
2022-10-22T11:12:49.982Z,2.20
2022-10-22T11:13:49.959Z,2.40
2022-10-22T11:14:49.947Z,2.10
2022-10-22T11:15:49.951Z,2.30
2022-10-22T11:16:49.903Z,2.10
2022-10-22T11:17:49.886Z,2.40
2022-10-22T11:18:49.869Z,2.60
2022-10-22T11:19:52.281Z,2.50
2022-10-22T11:20:50.853Z,2.30
2022-10-22T11:21:49.808Z,2.50
2022-10-22T11:23:16.892Z,2.60
2022-10-22T11:23:51.770Z,2.40
2022-10-22T11:24:50.764Z,2.20
2022-10-22T11:25:49.758Z,2.20
2022-10-22T11:26:50.718Z,2.20
2022-10-22T11:27:49.747Z,2.50
2022-10-22T11:28:49.705Z,2.10
2022-10-22T11:29:49.769Z,2.70
2022-10-22T11:30:49.667Z,2.50
2022-10-22T11:31:49.626Z,2.20
2022-10-22T11:32:49.604Z,2.20
2022-10-22T11:33:49.584Z,2.10
2022-10-22T11:34:49.568Z,2.20
2022-10-22T11:35:49.576Z,2.60
2022-10-22T11:36:49.532Z,2.80
2022-10-22T11:37:49.512Z,3.30
2022-10-22T11:38:49.494Z,3.10
2022-10-22T11:39:49.476Z,3.50
2022-10-22T11:40:49.480Z,2.80
2022-10-22T11:41:49.432Z,2.60
2022-10-22T11:42:49.416Z,2.70
2022-10-22T11:43:49.393Z,2.80
2022-10-22T11:44:49.507Z,2.60
2022-10-22T11:45:49.385Z,2.40
2022-10-22T11:46:49.338Z,2.60
2022-10-22T11:47:49.316Z,2.90
2022-10-22T11:48:49.297Z,2.70
2022-10-22T11:49:49.276Z,2.80
2022-10-22T11:50:49.284Z,2.50
2022-10-22T11:51:49.242Z,2.70
2022-10-22T11:52:49.221Z,2.30
2022-10-22T11:53:49.200Z,2.50
2022-10-22T11:54:49.178Z,2.70
2022-10-22T11:55:49.190Z,2.30
2022-10-22T11:56:49.146Z,2.80
2022-10-22T11:57:49.123Z,2.70
2022-10-22T11:58:52.247Z,2.60
2022-10-22T11:59:51.088Z,2.60
2022-10-22T12:00:49.094Z,2.80
2022-10-22T12:01:49.048Z,2.70
2022-10-22T12:02:49.033Z,2.70
2022-10-22T12:03:49.011Z,2.60
2022-10-22T12:04:49.030Z,2.50
2022-10-22T12:05:48.998Z,2.60
2022-10-22T12:06:48.950Z,2.40
2022-10-22T12:07:48.944Z,2.50
2022-10-22T12:08:48.991Z,2.40
2022-10-22T12:09:48.931Z,2.90
2022-10-22T12:10:48.904Z,2.40
2022-10-22T12:11:48.857Z,2.40
2022-10-22T12:12:48.837Z,2.70
2022-10-22T12:13:48.823Z,2.40
2022-10-22T12:14:48.805Z,2.40
2022-10-22T12:15:48.807Z,2.70
2022-10-22T12:16:56.094Z,5.00
2022-10-22T12:17:50.749Z,3.10
2022-10-22T12:18:48.724Z,2.50
2022-10-22T12:19:48.709Z,2.60
2022-10-22T12:20:48.714Z,2.60
2022-10-22T12:21:48.671Z,2.30
2022-10-22T12:22:48.650Z,2.50
2022-10-22T12:23:48.623Z,2.20
2022-10-22T12:24:49.609Z,2.30
2022-10-22T12:25:48.616Z,2.40
2022-10-22T12:26:48.571Z,2.30
2022-10-22T12:27:48.549Z,2.10
2022-10-22T12:28:48.533Z,2.10
2022-10-22T12:29:48.517Z,1.90
2022-10-22T12:30:48.520Z,2.00
2022-10-22T12:31:48.471Z,2.10
2022-10-22T12:32:48.449Z,2.00
2022-10-22T12:33:48.576Z,2.20
2022-10-22T12:35:48.423Z,2.00
2022-10-22T12:36:48.626Z,1.80
2022-10-22T12:37:48.357Z,2.00
2022-10-22T12:38:48.350Z,1.80
2022-10-22T12:39:48.318Z,2.00
2022-10-22T12:40:48.840Z,2.00
2022-10-22T12:41:49.138Z,2.00
2022-10-22T12:42:48.261Z,1.90
2022-10-22T12:43:48.234Z,1.80
2022-10-22T12:44:48.224Z,1.70
2022-10-22T12:45:48.222Z,1.80
2022-10-22T12:46:50.574Z,1.90
2022-10-22T12:47:49.164Z,1.70
2022-10-22T12:48:48.142Z,1.60
2022-10-22T12:49:48.269Z,1.70
2022-10-22T12:50:48.456Z,1.60
2022-10-22T12:51:48.482Z,1.50
2022-10-22T12:52:48.076Z,1.40
2022-10-22T12:53:48.103Z,1.40
2022-10-22T12:54:48.204Z,1.50
2022-10-22T12:55:48.048Z,1.50
2022-10-22T12:56:48.032Z,1.30
2022-10-22T12:57:47.994Z,1.60
2022-10-22T12:58:47.964Z,1.80
2022-10-22T12:59:49.952Z,1.60
2022-10-22T13:00:47.965Z,1.40
2022-10-22T13:01:47.925Z,1.50
2022-10-22T13:02:47.877Z,1.80
2022-10-22T13:03:47.896Z,1.50
2022-10-22T13:04:47.858Z,1.60
2022-10-22T13:05:47.986Z,1.60
2022-10-22T13:06:47.933Z,1.50
2022-10-22T13:07:47.880Z,1.70
2022-10-22T13:09:46.499Z,1.80
2022-10-22T13:09:48.252Z,1.80
2022-10-22T13:10:48.050Z,1.80